Logo AVAMET
Benvolgut visitant, si us plau, ingressa Recuperar contrasenya
AVAMET paisatges

Xacarella El Copo

Dades diàries. Acumulats / Últims 30 dies disponibles

Data Temperatura (°C) Humitat rel. (%) Pressió rel. (hPa) Vent (km/h) Precipitació
Mínima Mitjana Màxima Amplitud
tèrmica
Mínima Mitjana Màxima Mínima Mitjana Màxima Predom. Mitjana Ràfega
màxima
Total
(mm)
Índex-n
Mínima Mitjana Màxima Mínima Mitjana Màxima n
0 a 1
P0 max
mm 5'
Dades mensuals acumulades fins l'últim dia disponible
06/2020 15,1 16,8 20,2 23,3 25,9 28,7 31,2 16,1 33 65 95 1.000 1.008 1.014   9,5 41,8 2,0
Dades anuals acumulades fins l'últim dia disponible
2020 3,6 10,8 20,2 16,0 10,1 21,4 31,8 28,2 0 70 97 1.000 1.016 1.033   8,8 74,0 205,3
Últims 30 dies disponibles
04-06-2020 20,2     25,8     31,2 11,0 33 52 80 1.000 1.002 1.006 O 15,2 41,8 2,0
03-06-2020 16,1     24,2     30,3 14,2 44 66 94 1.001 1.006 1.011 S 8,6 28,9 0,0
02-06-2020 15,7     21,4     25,9 10,2 56 75 95 1.010 1.012 1.014 S 7,0 22,5 0,0
01-06-2020 15,1     21,6     27,2 12,1 39 67 86 1.011 1.012 1.013 SSO 7,1 22,5 0,0
31-05-2020 13,8     20,7     26,0 12,2 34 62 92 1.009 1.011 1.012 S 7,6 19,3 0,0
30-05-2020 12,8     20,1     25,2 12,4 32 66 91 1.011 1.013 1.014 S 7,4 22,5 0,0
29-05-2020 14,7     21,3     26,1 11,4 36 54 84 1.011 1.014 1.018 SSE 7,7 22,5 0,0
28-05-2020 15,1     22,1     25,7 10,6 39 57 84 1.017 1.020 1.022 ESE 15,5 48,2 0,0
27-05-2020 15,5     21,5     26,7 11,2 40 67 86 1.020 1.021 1.022 SSE 12,2 37,0 0,0
26-05-2020 15,1     20,6     25,2 10,1 48 69 88 1.020 1.022 1.023 S 10,4 27,3 0,0
25-05-2020 15,0     20,7     25,2 10,2 28 65 92 1.021 1.023 1.023 SE 7,8 24,1 0,0
24-05-2020 16,3     22,5     26,2 9,9 40 63 89 1.022 1.023 1.024 SE 12,9 33,7 0,0
23-05-2020 16,1     23,6     30,0 13,9 31 56 87 1.020 1.021 1.023 SSO 7,3 22,5 0,0
22-05-2020 15,6     22,9     30,8 15,2 37 67 94 1.018 1.019 1.021 SSE 7,3 28,9 0,0
21-05-2020 16,1     22,4     27,6 11,5 44 73 93 1.014 1.016 1.018 SSE 7,0 20,9 0,0
20-05-2020 15,9     23,1     28,8 12,9 41 65 91 1.011 1.012 1.013 S 7,2 22,5 0,0
19-05-2020 15,2     23,4     29,6 14,4 36 62 91 1.012 1.014 1.017 S 8,6 24,1 0,0
18-05-2020         27,7 27,7 39 52 76 1.015 1.017 1.019 OSO 11,6 28,9 0,0
16-05-2020 14,7     15,6     18,1 3,4 72 83 90 1.010 1.011 1.012 ONO 8,8 17,7 0,2
15-05-2020 13,0     17,2     20,7 7,7 59 75 91 1.007 1.009 1.011 S 7,6 22,5
14-05-2020 13,2     17,2     22,1 8,9 51 73 92 1.001 1.003 1.005 OSO 12,9 27,3 10,1 0,19 0,80
13-05-2020 13,0     19,1     24,1 11,1 36 56 77 1.001 1.004 1.005 OSO 12,2 37,0 0,7
12-05-2020 15,5     19,6     23,3 7,8 53 68 84 1.003 1.005 1.008 SSE 6,6 17,7 0,5
11-05-2020 15,0     21,7     26,9 11,9 36 50 73 1.005 1.006 1.008 O 12,5 33,7 0,0
10-05-2020 15,5     20,7     26,3 10,8 30 59 90 1.003 1.004 1.005 ONO 14,3 35,4 1,0
09-05-2020 16,7     20,2     23,3 6,6 67 79 91 1.005 1.009 1.014 SSO 9,7 24,1 0,0
08-05-2020 15,8     20,3     23,7 7,9 60 72 88 1.010 1.012 1.014 S 10,8 27,3 0,0
07-05-2020 15,1     21,2     26,2 11,1 36 64 94 1.012 1.014 1.015 SSE 11,6 32,1 0,0
06-05-2020 15,2     20,9     25,3 10,1 48 70 95 1.012 1.013 1.014 SSE 8,8 22,5 0,0
05-05-2020 15,7     23,2     28,2 12,5 40 56 82 1.010 1.011 1.012 S 7,9 20,9 0,0
Últims 13 mesos disponibles
05/2020 12,8 15,2 18,6 21,2 18,1 26,2 31,8 19,0 50 64 83 1.003 1.013 1.023 SSE 9,8 48,2 12,5
04/2020 8,2 11,9 16,6 16,2 15,7 20,5 27,3 19,1 53 75 88 1.003 1.013 1.022 SSE 8,5 40,2 22,6
03/2020 7,3 10,3 15,7 14,8 11,3 19,6 28,8 21,5 39 69 93 1.006 1.015 1.022 OSO 10,3 74,0 104,4
02/2020 3,6 8,0 12,2 14,5 15,4 21,7 26,8 23,2 41 72 88 1.013 1.023 1.031 OSO 7,6 45,1 2,0
01/2020 4,1 6,6 11,5 11,5 10,1 16,8 21,9 17,8 60 74 90 1.011 1.021 1.028 O 7,4 61,2 61,8
12/2019 5,8 9,7 16,4 13,4 10,3 18,0 22,9 17,1 43 74 92 1.003 1.016 1.030 O 8,7 66,0 32,2
11/2019 6,2 11,2 18,9 15,4 15,1 20,0 27,9 21,7 43 59 92 999 1.010 1.017 ONO 11,8 82,1 10,2
10/2019 11,9 17,3 24,1 22,1 22,1 27,3 34,5 22,6 37 70 86 1.008 1.015 1.019 SSW 7,3 41,8 0,2
09/2019 16,0 19,7 22,2 23,7 21,4 28,7 33,9 17,9 45 76 91 1.008 1.014 1.019 SSW 7,5 56,3 189,4
08/2019 19,1 21,5 25,1 26,4 23,8 31,9 40,8 21,7 50 73 93 1.008 1.013 1.017 SSW 7,8 45,1 33,2
07/2019 18,6 21,3 25,3 27,0 29,1 32,7 39,5 20,9 32 64 76 1.004 1.011 1.017 ESE 9,2 54,7 0,0
06/2019 11,9 16,9 21,2 23,1 23,4 28,9 35,1 23,2 40 61 76 1.007 1.013 1.020 SSW 9,3 51,5 1,2
05/2019 10,9 13,9 19,6 19,4 19,8 24,9 31,1 20,2 46 67 79 1.004 1.013 1.023 S 8,8 51,5 1,8
Tots els anys disponibles
2019 0,8 13,6 25,3 18,8 10,3 24,3 40,8 40,0 32 66 93 995 1.014 1.030 SSW 8,8 83,7 406,0
Temperatura (°C)
Humitat relativa (%)
Velocitat del vent i ràfega màxima (km/h)
Direcció del vent (°)
Pressió (hPa)
Precipitació (mm)
Nota sobre les dades: s'avisa a l'usuari de la provisionalitat i no oficialitat d'aquestes dades
Logo AVAMET blanc
Web allotjada a Sollutia
Llicència de Creative CommonsLa web d'AVAMET i els seus continguts estan subjectes a una llicència de
Reconeixement - No Comercial - Compartir igual
Últimes estacions: Biar - IES Biar (Soci), Xodos - la Vega (Soci), la Vall d'Alba - Centre (Ajuntament soci), Chera (Ajuntament soci) - - -